Terminal Aerodrome Forecast
Issued by NWS

Home | Current Version | Previous Version | Text Only | Print | Product List | Glossary Off
Versions: 1 2 3 4 5 6 7 8 9 10 11 12 13

000
FTUS43 KUNR 290800 AAA
TAFGCC
TAF AMD
KGCC 290828Z 2908/3006 14008KT P6SM VCTS BKN070CB BKN090
      TEMPO 2908/2911 5SM -TSRA BKN040CB
     FM292100 02008KT P6SM BKN100=

USA.gov is the U.S. government's official web portal to all federal, state and local government web resources and services.